sensor_id;sensor_type;location;lat;lon;timestamp;P1;durP1;ratioP1;P2;durP2;ratioP2
4597;SDS011;62772;48.646;8.906;2023-02-28T00:03:26;7.00;;;4.30;;
4597;SDS011;62772;48.646;8.906;2023-02-28T00:08:26;9.00;;;4.83;;
4597;SDS011;62772;48.646;8.906;2023-02-28T00:13:27;6.83;;;4.10;;
4597;SDS011;62772;48.646;8.906;2023-02-28T00:18:27;8.47;;;4.43;;
4597;SDS011;62772;48.646;8.906;2023-02-28T00:23:28;7.43;;;5.00;;
4597;SDS011;62772;48.646;8.906;2023-02-28T00:28:28;8.63;;;4.40;;
4597;SDS011;62772;48.646;8.906;2023-02-28T00:33:29;6.40;;;4.60;;
4597;SDS011;62772;48.646;8.906;2023-02-28T00:38:29;7.57;;;4.60;;
4597;SDS011;62772;48.646;8.906;2023-02-28T00:43:31;5.20;;;3.73;;
4597;SDS011;62772;48.646;8.906;2023-02-28T00:48:35;5.97;;;4.13;;
4597;SDS011;62772;48.646;8.906;2023-02-28T00:53:37;5.90;;;4.53;;
4597;SDS011;62772;48.646;8.906;2023-02-28T00:58:37;7.03;;;4.57;;
4597;SDS011;62772;48.646;8.906;2023-02-28T01:03:37;6.43;;;4.60;;
4597;SDS011;62772;48.646;8.906;2023-02-28T01:08:38;6.80;;;4.33;;
4597;SDS011;62772;48.646;8.906;2023-02-28T01:13:39;9.70;;;4.77;;
4597;SDS011;62772;48.646;8.906;2023-02-28T01:18:40;5.30;;;3.93;;
4597;SDS011;62772;48.646;8.906;2023-02-28T01:23:41;7.27;;;4.03;;
4597;SDS011;62772;48.646;8.906;2023-02-28T01:28:44;5.73;;;3.90;;
4597;SDS011;62772;48.646;8.906;2023-02-28T01:33:45;6.23;;;4.33;;
4597;SDS011;62772;48.646;8.906;2023-02-28T01:38:46;6.30;;;5.00;;
4597;SDS011;62772;48.646;8.906;2023-02-28T01:48:48;8.17;;;4.90;;
4597;SDS011;62772;48.646;8.906;2023-02-28T01:53:58;9.10;;;4.47;;
4597;SDS011;62772;48.646;8.906;2023-02-28T01:59:02;8.03;;;4.43;;
4597;SDS011;62772;48.646;8.906;2023-02-28T02:04:03;8.07;;;4.63;;
4597;SDS011;62772;48.646;8.906;2023-02-28T02:09:04;8.03;;;4.87;;
4597;SDS011;62772;48.646;8.906;2023-02-28T02:46:14;8.00;;;5.00;;
4597;SDS011;62772;48.646;8.906;2023-02-28T02:51:20;9.57;;;5.53;;
4597;SDS011;62772;48.646;8.906;2023-02-28T02:56:25;11.50;;;5.37;;
4597;SDS011;62772;48.646;8.906;2023-02-28T03:01:29;7.40;;;4.97;;
4597;SDS011;62772;48.646;8.906;2023-02-28T03:06:31;10.30;;;5.70;;
4597;SDS011;62772;48.646;8.906;2023-02-28T03:11:32;7.03;;;4.83;;
4597;SDS011;62772;48.646;8.906;2023-02-28T03:16:49;10.03;;;5.70;;
4597;SDS011;62772;48.646;8.906;2023-02-28T03:22:25;9.40;;;5.77;;
4597;SDS011;62772;48.646;8.906;2023-02-28T03:27:41;11.27;;;6.17;;
4597;SDS011;62772;48.646;8.906;2023-02-28T03:32:57;10.80;;;6.10;;
4597;SDS011;62772;48.646;8.906;2023-02-28T03:38:13;13.37;;;6.67;;
4597;SDS011;62772;48.646;8.906;2023-02-28T03:43:21;11.47;;;6.33;;
4597;SDS011;62772;48.646;8.906;2023-02-28T03:48:29;10.53;;;6.00;;
4597;SDS011;62772;48.646;8.906;2023-02-28T03:53:37;8.70;;;6.10;;
4597;SDS011;62772;48.646;8.906;2023-02-28T03:59:03;14.83;;;6.30;;
4597;SDS011;62772;48.646;8.906;2023-02-28T04:04:10;8.47;;;5.50;;
4597;SDS011;62772;48.646;8.906;2023-02-28T04:09:13;9.30;;;5.40;;
4597;SDS011;62772;48.646;8.906;2023-02-28T04:14:14;15.23;;;6.43;;
4597;SDS011;62772;48.646;8.906;2023-02-28T04:19:15;15.20;;;6.50;;
4597;SDS011;62772;48.646;8.906;2023-02-28T04:24:16;10.50;;;6.57;;
4597;SDS011;62772;48.646;8.906;2023-02-28T04:29:28;15.80;;;7.20;;
4597;SDS011;62772;48.646;8.906;2023-02-28T04:34:30;12.50;;;7.13;;
4597;SDS011;62772;48.646;8.906;2023-02-28T04:39:34;13.20;;;7.00;;
4597;SDS011;62772;48.646;8.906;2023-02-28T04:44:36;12.37;;;6.40;;
4597;SDS011;62772;48.646;8.906;2023-02-28T04:49:37;13.43;;;7.10;;
4597;SDS011;62772;48.646;8.906;2023-02-28T04:54:38;12.97;;;7.13;;
4597;SDS011;62772;48.646;8.906;2023-02-28T04:59:39;15.93;;;7.73;;
4597;SDS011;62772;48.646;8.906;2023-02-28T05:04:39;12.73;;;7.33;;
4597;SDS011;62772;48.646;8.906;2023-02-28T05:09:40;10.40;;;6.90;;
4597;SDS011;62772;48.646;8.906;2023-02-28T05:14:40;11.97;;;7.77;;
4597;SDS011;62772;48.646;8.906;2023-02-28T05:19:41;13.23;;;7.83;;
4597;SDS011;62772;48.646;8.906;2023-02-28T05:24:41;13.33;;;7.03;;
4597;SDS011;62772;48.646;8.906;2023-02-28T05:29:42;12.60;;;7.13;;
4597;SDS011;62772;48.646;8.906;2023-02-28T05:34:45;13.43;;;7.33;;
4597;SDS011;62772;48.646;8.906;2023-02-28T05:39:46;15.97;;;8.37;;
4597;SDS011;62772;48.646;8.906;2023-02-28T05:44:46;12.20;;;7.40;;
4597;SDS011;62772;48.646;8.906;2023-02-28T05:49:47;16.70;;;7.53;;
4597;SDS011;62772;48.646;8.906;2023-02-28T05:54:47;12.97;;;7.47;;
4597;SDS011;62772;48.646;8.906;2023-02-28T05:59:48;12.87;;;7.67;;
4597;SDS011;62772;48.646;8.906;2023-02-28T06:04:48;32.90;;;6.80;;
4597;SDS011;62772;48.646;8.906;2023-02-28T06:09:49;15.40;;;7.83;;
4597;SDS011;62772;48.646;8.906;2023-02-28T06:14:49;14.17;;;7.83;;
4597;SDS011;62772;48.646;8.906;2023-02-28T06:19:50;15.80;;;7.80;;
4597;SDS011;62772;48.646;8.906;2023-02-28T06:24:50;16.37;;;7.70;;
4597;SDS011;62772;48.646;8.906;2023-02-28T06:29:53;15.40;;;8.13;;
4597;SDS011;62772;48.646;8.906;2023-02-28T06:34:55;14.67;;;7.70;;
4597;SDS011;62772;48.646;8.906;2023-02-28T06:39:57;18.20;;;8.93;;
4597;SDS011;62772;48.646;8.906;2023-02-28T06:44:58;14.07;;;8.10;;
4597;SDS011;62772;48.646;8.906;2023-02-28T06:49:58;15.40;;;8.40;;
4597;SDS011;62772;48.646;8.906;2023-02-28T06:55:01;15.53;;;7.87;;
4597;SDS011;62772;48.646;8.906;2023-02-28T07:00:06;17.03;;;8.70;;
4597;SDS011;62772;48.646;8.906;2023-02-28T07:05:08;14.43;;;8.00;;
4597;SDS011;62772;48.646;8.906;2023-02-28T07:10:09;17.93;;;7.93;;
4597;SDS011;62772;48.646;8.906;2023-02-28T07:15:11;17.50;;;9.73;;
4597;SDS011;62772;48.646;8.906;2023-02-28T07:20:11;18.60;;;9.33;;
4597;SDS011;62772;48.646;8.906;2023-02-28T07:25:12;14.80;;;8.90;;
4597;SDS011;62772;48.646;8.906;2023-02-28T07:30:13;14.87;;;8.73;;
4597;SDS011;62772;48.646;8.906;2023-02-28T07:35:14;20.03;;;8.43;;
4597;SDS011;62772;48.646;8.906;2023-02-28T07:40:15;17.77;;;8.60;;
4597;SDS011;62772;48.646;8.906;2023-02-28T07:45:17;20.07;;;9.33;;
4597;SDS011;62772;48.646;8.906;2023-02-28T07:50:19;20.50;;;9.93;;
4597;SDS011;62772;48.646;8.906;2023-02-28T07:55:19;21.50;;;9.80;;
4597;SDS011;62772;48.646;8.906;2023-02-28T08:00:20;16.83;;;9.33;;
4597;SDS011;62772;48.646;8.906;2023-02-28T08:05:21;16.67;;;9.60;;
4597;SDS011;62772;48.646;8.906;2023-02-28T08:10:22;21.10;;;10.80;;
4597;SDS011;62772;48.646;8.906;2023-02-28T08:15:22;21.77;;;10.77;;
4597;SDS011;62772;48.646;8.906;2023-02-28T08:20:24;19.67;;;9.97;;
4597;SDS011;62772;48.646;8.906;2023-02-28T08:25:25;17.97;;;9.70;;
4597;SDS011;62772;48.646;8.906;2023-02-28T08:30:25;21.50;;;10.70;;
4597;SDS011;62772;48.646;8.906;2023-02-28T08:35:26;22.70;;;11.90;;
4597;SDS011;62772;48.646;8.906;2023-02-28T08:40:26;19.43;;;10.27;;
4597;SDS011;62772;48.646;8.906;2023-02-28T08:45:26;19.83;;;10.10;;
4597;SDS011;62772;48.646;8.906;2023-02-28T08:50:27;21.53;;;10.70;;
4597;SDS011;62772;48.646;8.906;2023-02-28T08:55:27;18.37;;;11.10;;
4597;SDS011;62772;48.646;8.906;2023-02-28T09:00:28;24.13;;;11.00;;
4597;SDS011;62772;48.646;8.906;2023-02-28T09:05:28;19.60;;;10.37;;
4597;SDS011;62772;48.646;8.906;2023-02-28T09:10:29;24.10;;;12.17;;
4597;SDS011;62772;48.646;8.906;2023-02-28T09:15:30;24.87;;;12.10;;
4597;SDS011;62772;48.646;8.906;2023-02-28T09:20:30;21.37;;;10.50;;
4597;SDS011;62772;48.646;8.906;2023-02-28T09:25:31;19.97;;;10.93;;
4597;SDS011;62772;48.646;8.906;2023-02-28T09:30:31;23.80;;;11.43;;
4597;SDS011;62772;48.646;8.906;2023-02-28T09:35:32;24.00;;;11.63;;
4597;SDS011;62772;48.646;8.906;2023-02-28T09:40:35;21.30;;;11.30;;
4597;SDS011;62772;48.646;8.906;2023-02-28T09:45:39;22.20;;;11.70;;
4597;SDS011;62772;48.646;8.906;2023-02-28T09:50:45;21.30;;;10.70;;
4597;SDS011;62772;48.646;8.906;2023-02-28T09:55:50;19.90;;;10.97;;
4597;SDS011;62772;48.646;8.906;2023-02-28T10:01:00;19.43;;;10.90;;
4597;SDS011;62772;48.646;8.906;2023-02-28T10:06:08;27.10;;;12.83;;
4597;SDS011;62772;48.646;8.906;2023-02-28T10:11:16;21.37;;;10.90;;
4597;SDS011;62772;48.646;8.906;2023-02-28T10:16:23;24.03;;;12.70;;
4597;SDS011;62772;48.646;8.906;2023-02-28T10:21:30;22.93;;;11.37;;
4597;SDS011;62772;48.646;8.906;2023-02-28T10:26:35;26.13;;;13.70;;
4597;SDS011;62772;48.646;8.906;2023-02-28T10:31:36;23.03;;;11.60;;
4597;SDS011;62772;48.646;8.906;2023-02-28T10:36:38;21.30;;;11.80;;
4597;SDS011;62772;48.646;8.906;2023-02-28T10:41:41;20.77;;;11.33;;
4597;SDS011;62772;48.646;8.906;2023-02-28T10:46:43;26.43;;;12.30;;
4597;SDS011;62772;48.646;8.906;2023-02-28T10:51:44;22.40;;;11.87;;
4597;SDS011;62772;48.646;8.906;2023-02-28T10:56:45;21.93;;;12.03;;
4597;SDS011;62772;48.646;8.906;2023-02-28T11:01:46;18.93;;;11.60;;
4597;SDS011;62772;48.646;8.906;2023-02-28T11:06:56;24.00;;;12.20;;
4597;SDS011;62772;48.646;8.906;2023-02-28T11:11:58;19.47;;;11.07;;
4597;SDS011;62772;48.646;8.906;2023-02-28T11:17:13;23.60;;;12.30;;
4597;SDS011;62772;48.646;8.906;2023-02-28T11:22:20;20.00;;;11.53;;
4597;SDS011;62772;48.646;8.906;2023-02-28T11:32:30;25.70;;;13.20;;
4597;SDS011;62772;48.646;8.906;2023-02-28T11:37:31;24.20;;;12.13;;
4597;SDS011;62772;48.646;8.906;2023-02-28T12:04:22;24.23;;;12.20;;
4597;SDS011;62772;48.646;8.906;2023-02-28T12:09:36;22.37;;;12.80;;
4597;SDS011;62772;48.646;8.906;2023-02-28T12:14:54;26.73;;;12.60;;
4597;SDS011;62772;48.646;8.906;2023-02-28T12:30:49;20.07;;;12.10;;
4597;SDS011;62772;48.646;8.906;2023-02-28T12:35:57;20.70;;;12.53;;
4597;SDS011;62772;48.646;8.906;2023-02-28T12:41:05;19.27;;;12.50;;
4597;SDS011;62772;48.646;8.906;2023-02-28T12:46:23;25.87;;;13.17;;
4597;SDS011;62772;48.646;8.906;2023-02-28T12:51:32;26.60;;;12.70;;
4597;SDS011;62772;48.646;8.906;2023-02-28T13:12:13;24.17;;;13.37;;
4597;SDS011;62772;48.646;8.906;2023-02-28T13:17:21;23.50;;;13.10;;
4597;SDS011;62772;48.646;8.906;2023-02-28T13:27:36;21.23;;;12.87;;
4597;SDS011;62772;48.646;8.906;2023-02-28T13:32:40;22.30;;;12.67;;
4597;SDS011;62772;48.646;8.906;2023-02-28T13:37:44;22.47;;;12.70;;
4597;SDS011;62772;48.646;8.906;2023-02-28T13:42:49;22.93;;;12.73;;
4597;SDS011;62772;48.646;8.906;2023-02-28T13:47:54;21.23;;;12.00;;
4597;SDS011;62772;48.646;8.906;2023-02-28T14:09:37;22.80;;;13.70;;
4597;SDS011;62772;48.646;8.906;2023-02-28T14:19:36;25.10;;;13.03;;
4597;SDS011;62772;48.646;8.906;2023-02-28T14:35:10;20.80;;;11.27;;
4597;SDS011;62772;48.646;8.906;2023-02-28T14:40:21;22.20;;;12.40;;
4597;SDS011;62772;48.646;8.906;2023-02-28T14:45:23;21.30;;;12.33;;
4597;SDS011;62772;48.646;8.906;2023-02-28T14:50:26;23.63;;;12.37;;
4597;SDS011;62772;48.646;8.906;2023-02-28T14:55:34;26.67;;;13.53;;
4597;SDS011;62772;48.646;8.906;2023-02-28T15:00:36;23.43;;;12.87;;
4597;SDS011;62772;48.646;8.906;2023-02-28T15:05:53;19.20;;;11.43;;
4597;SDS011;62772;48.646;8.906;2023-02-28T15:16:01;23.27;;;12.07;;
4597;SDS011;62772;48.646;8.906;2023-02-28T15:21:06;19.10;;;11.80;;
4597;SDS011;62772;48.646;8.906;2023-02-28T15:26:13;27.10;;;12.80;;
4597;SDS011;62772;48.646;8.906;2023-02-28T15:32:03;23.30;;;12.63;;
4597;SDS011;62772;48.646;8.906;2023-02-28T15:36:45;21.50;;;11.97;;
4597;SDS011;62772;48.646;8.906;2023-02-28T15:41:46;23.20;;;11.80;;
4597;SDS011;62772;48.646;8.906;2023-02-28T15:47:14;21.77;;;12.27;;
4597;SDS011;62772;48.646;8.906;2023-02-28T15:52:19;23.17;;;11.67;;
4597;SDS011;62772;48.646;8.906;2023-02-28T15:57:24;20.67;;;11.43;;
4597;SDS011;62772;48.646;8.906;2023-02-28T16:02:33;21.23;;;11.50;;
4597;SDS011;62772;48.646;8.906;2023-02-28T16:07:41;19.23;;;11.73;;
4597;SDS011;62772;48.646;8.906;2023-02-28T16:12:43;24.97;;;12.20;;
4597;SDS011;62772;48.646;8.906;2023-02-28T16:17:44;24.40;;;13.33;;
4597;SDS011;62772;48.646;8.906;2023-02-28T16:22:45;21.87;;;11.67;;
4597;SDS011;62772;48.646;8.906;2023-02-28T16:27:47;29.53;;;12.50;;
4597;SDS011;62772;48.646;8.906;2023-02-28T16:32:50;21.40;;;12.00;;
4597;SDS011;62772;48.646;8.906;2023-02-28T16:37:52;19.43;;;10.80;;
4597;SDS011;62772;48.646;8.906;2023-02-28T16:42:55;21.40;;;11.87;;
4597;SDS011;62772;48.646;8.906;2023-02-28T16:47:58;23.53;;;11.57;;
4597;SDS011;62772;48.646;8.906;2023-02-28T16:52:59;21.50;;;11.00;;
4597;SDS011;62772;48.646;8.906;2023-02-28T16:58:00;21.30;;;11.40;;
4597;SDS011;62772;48.646;8.906;2023-02-28T17:03:01;21.60;;;12.43;;
4597;SDS011;62772;48.646;8.906;2023-02-28T17:08:02;22.40;;;12.07;;
4597;SDS011;62772;48.646;8.906;2023-02-28T17:13:03;25.80;;;12.50;;
4597;SDS011;62772;48.646;8.906;2023-02-28T17:18:03;24.33;;;12.27;;
4597;SDS011;62772;48.646;8.906;2023-02-28T17:23:05;20.17;;;11.77;;
4597;SDS011;62772;48.646;8.906;2023-02-28T17:28:07;25.37;;;12.67;;
4597;SDS011;62772;48.646;8.906;2023-02-28T17:33:09;26.87;;;14.80;;
4597;SDS011;62772;48.646;8.906;2023-02-28T17:38:14;28.63;;;14.90;;
4597;SDS011;62772;48.646;8.906;2023-02-28T17:43:16;27.87;;;14.37;;
4597;SDS011;62772;48.646;8.906;2023-02-28T17:48:16;26.80;;;14.20;;
4597;SDS011;62772;48.646;8.906;2023-02-28T17:53:17;26.83;;;14.50;;
4597;SDS011;62772;48.646;8.906;2023-02-28T17:58:17;21.07;;;12.10;;
4597;SDS011;62772;48.646;8.906;2023-02-28T18:03:18;24.63;;;12.80;;
4597;SDS011;62772;48.646;8.906;2023-02-28T18:08:19;24.13;;;13.17;;
4597;SDS011;62772;48.646;8.906;2023-02-28T18:13:20;22.13;;;13.07;;
4597;SDS011;62772;48.646;8.906;2023-02-28T18:18:20;19.77;;;11.97;;
4597;SDS011;62772;48.646;8.906;2023-02-28T18:23:21;25.63;;;12.50;;
4597;SDS011;62772;48.646;8.906;2023-02-28T18:28:21;20.93;;;12.60;;
4597;SDS011;62772;48.646;8.906;2023-02-28T18:33:22;24.43;;;12.10;;
4597;SDS011;62772;48.646;8.906;2023-02-28T18:38:22;21.43;;;12.50;;
4597;SDS011;62772;48.646;8.906;2023-02-28T18:43:22;25.90;;;13.90;;
4597;SDS011;62772;48.646;8.906;2023-02-28T18:48:23;24.50;;;13.60;;
4597;SDS011;62772;48.646;8.906;2023-02-28T18:53:23;23.70;;;12.70;;
4597;SDS011;62772;48.646;8.906;2023-02-28T18:58:24;27.70;;;14.10;;
4597;SDS011;62772;48.646;8.906;2023-02-28T19:03:25;22.97;;;12.93;;
4597;SDS011;62772;48.646;8.906;2023-02-28T19:08:25;27.63;;;13.30;;
4597;SDS011;62772;48.646;8.906;2023-02-28T19:13:26;25.70;;;13.23;;
4597;SDS011;62772;48.646;8.906;2023-02-28T19:18:26;25.90;;;13.93;;
4597;SDS011;62772;48.646;8.906;2023-02-28T19:23:27;26.87;;;14.00;;
4597;SDS011;62772;48.646;8.906;2023-02-28T19:28:30;25.40;;;13.80;;
4597;SDS011;62772;48.646;8.906;2023-02-28T19:33:30;25.63;;;14.53;;
4597;SDS011;62772;48.646;8.906;2023-02-28T19:38:31;29.43;;;15.83;;
4597;SDS011;62772;48.646;8.906;2023-02-28T19:43:32;25.93;;;13.90;;
4597;SDS011;62772;48.646;8.906;2023-02-28T19:48:32;24.00;;;13.13;;
4597;SDS011;62772;48.646;8.906;2023-02-28T19:53:34;29.30;;;14.83;;
4597;SDS011;62772;48.646;8.906;2023-02-28T19:58:36;31.00;;;14.70;;
4597;SDS011;62772;48.646;8.906;2023-02-28T20:03:37;28.53;;;14.40;;
4597;SDS011;62772;48.646;8.906;2023-02-28T20:08:38;31.57;;;15.00;;
4597;SDS011;62772;48.646;8.906;2023-02-28T20:13:39;26.60;;;14.13;;
4597;SDS011;62772;48.646;8.906;2023-02-28T20:18:41;25.77;;;13.10;;
4597;SDS011;62772;48.646;8.906;2023-02-28T20:23:43;25.57;;;13.80;;
4597;SDS011;62772;48.646;8.906;2023-02-28T20:28:45;23.77;;;12.53;;
4597;SDS011;62772;48.646;8.906;2023-02-28T20:33:46;28.10;;;14.30;;
4597;SDS011;62772;48.646;8.906;2023-02-28T20:38:51;23.87;;;12.77;;
4597;SDS011;62772;48.646;8.906;2023-02-28T20:43:56;28.13;;;14.53;;
4597;SDS011;62772;48.646;8.906;2023-02-28T20:48:57;32.40;;;14.87;;
4597;SDS011;62772;48.646;8.906;2023-02-28T20:53:58;28.13;;;14.67;;
4597;SDS011;62772;48.646;8.906;2023-02-28T20:58:58;31.60;;;14.33;;
4597;SDS011;62772;48.646;8.906;2023-02-28T21:04:00;25.87;;;14.20;;
4597;SDS011;62772;48.646;8.906;2023-02-28T21:09:05;28.73;;;14.60;;
4597;SDS011;62772;48.646;8.906;2023-02-28T21:14:12;27.17;;;14.93;;
4597;SDS011;62772;48.646;8.906;2023-02-28T21:19:15;28.17;;;14.67;;
4597;SDS011;62772;48.646;8.906;2023-02-28T21:24:16;27.87;;;13.60;;
4597;SDS011;62772;48.646;8.906;2023-02-28T21:29:18;31.20;;;15.87;;
4597;SDS011;62772;48.646;8.906;2023-02-28T21:34:19;27.17;;;14.10;;
4597;SDS011;62772;48.646;8.906;2023-02-28T21:39:20;29.43;;;15.13;;
4597;SDS011;62772;48.646;8.906;2023-02-28T21:44:24;30.10;;;15.30;;
4597;SDS011;62772;48.646;8.906;2023-02-28T21:49:27;29.50;;;15.00;;
4597;SDS011;62772;48.646;8.906;2023-02-28T21:54:28;36.80;;;15.23;;
4597;SDS011;62772;48.646;8.906;2023-02-28T21:59:28;32.67;;;15.37;;
4597;SDS011;62772;48.646;8.906;2023-02-28T22:04:29;29.87;;;15.40;;
4597;SDS011;62772;48.646;8.906;2023-02-28T22:09:29;32.47;;;15.10;;
4597;SDS011;62772;48.646;8.906;2023-02-28T22:14:30;30.43;;;15.00;;
4597;SDS011;62772;48.646;8.906;2023-02-28T22:19:31;30.57;;;15.60;;
4597;SDS011;62772;48.646;8.906;2023-02-28T22:24:31;30.70;;;16.10;;
4597;SDS011;62772;48.646;8.906;2023-02-28T22:29:32;33.50;;;15.57;;
4597;SDS011;62772;48.646;8.906;2023-02-28T22:34:32;30.00;;;15.00;;
4597;SDS011;62772;48.646;8.906;2023-02-28T22:39:33;30.53;;;15.80;;
4597;SDS011;62772;48.646;8.906;2023-02-28T22:44:34;34.30;;;16.77;;
4597;SDS011;62772;48.646;8.906;2023-02-28T22:49:35;28.80;;;15.00;;
4597;SDS011;62772;48.646;8.906;2023-02-28T22:54:35;29.10;;;15.17;;
4597;SDS011;62772;48.646;8.906;2023-02-28T22:59:36;34.57;;;16.83;;
4597;SDS011;62772;48.646;8.906;2023-02-28T23:04:36;34.33;;;15.23;;
4597;SDS011;62772;48.646;8.906;2023-02-28T23:09:37;34.30;;;16.23;;
4597;SDS011;62772;48.646;8.906;2023-02-28T23:14:37;37.50;;;18.50;;
4597;SDS011;62772;48.646;8.906;2023-02-28T23:19:38;34.90;;;16.83;;
4597;SDS011;62772;48.646;8.906;2023-02-28T23:24:38;31.60;;;16.43;;
4597;SDS011;62772;48.646;8.906;2023-02-28T23:29:38;33.77;;;16.90;;
4597;SDS011;62772;48.646;8.906;2023-02-28T23:34:39;33.90;;;16.60;;
4597;SDS011;62772;48.646;8.906;2023-02-28T23:39:40;36.17;;;15.60;;
4597;SDS011;62772;48.646;8.906;2023-02-28T23:44:40;31.33;;;15.70;;
4597;SDS011;62772;48.646;8.906;2023-02-28T23:49:41;29.47;;;16.23;;
4597;SDS011;62772;48.646;8.906;2023-02-28T23:54:41;31.03;;;15.50;;
4597;SDS011;62772;48.646;8.906;2023-02-28T23:59:42;35.67;;;16.00;;
